sensor_id;sensor_type;location;lat;lon;timestamp;temperature;humidity
20827;DHT22;10574;52.508;13.236;2022-08-03T00:01:20;20.90;99.90
20827;DHT22;10574;52.508;13.236;2022-08-03T00:03:48;20.90;99.90
20827;DHT22;10574;52.508;13.236;2022-08-03T00:06:16;20.80;99.90
20827;DHT22;10574;52.508;13.236;2022-08-03T00:08:44;20.80;99.90
20827;DHT22;10574;52.508;13.236;2022-08-03T00:11:12;20.80;99.90
20827;DHT22;10574;52.508;13.236;2022-08-03T00:13:41;20.70;99.90
20827;DHT22;10574;52.508;13.236;2022-08-03T00:16:09;20.60;99.90
20827;DHT22;10574;52.508;13.236;2022-08-03T00:18:42;20.50;99.90
20827;DHT22;10574;52.508;13.236;2022-08-03T00:21:10;20.60;99.90
20827;DHT22;10574;52.508;13.236;2022-08-03T00:23:38;20.50;99.90
20827;DHT22;10574;52.508;13.236;2022-08-03T00:26:06;20.50;99.90
20827;DHT22;10574;52.508;13.236;2022-08-03T00:28:34;20.50;99.90
20827;DHT22;10574;52.508;13.236;2022-08-03T00:31:03;20.40;99.90
20827;DHT22;10574;52.508;13.236;2022-08-03T00:33:31;20.30;99.90
20827;DHT22;10574;52.508;13.236;2022-08-03T00:35:58;20.30;99.90
20827;DHT22;10574;52.508;13.236;2022-08-03T00:38:26;20.30;99.90
20827;DHT22;10574;52.508;13.236;2022-08-03T00:40:54;20.30;99.90
20827;DHT22;10574;52.508;13.236;2022-08-03T00:43:26;20.20;99.90
20827;DHT22;10574;52.508;13.236;2022-08-03T00:45:54;20.20;99.90
20827;DHT22;10574;52.508;13.236;2022-08-03T00:48:22;20.20;99.90
20827;DHT22;10574;52.508;13.236;2022-08-03T00:50:51;20.20;99.90
20827;DHT22;10574;52.508;13.236;2022-08-03T00:53:20;20.20;99.90
20827;DHT22;10574;52.508;13.236;2022-08-03T00:55:48;20.20;99.90
20827;DHT22;10574;52.508;13.236;2022-08-03T00:58:15;20.30;99.90
20827;DHT22;10574;52.508;13.236;2022-08-03T01:00:44;20.30;99.90
20827;DHT22;10574;52.508;13.236;2022-08-03T01:03:12;20.30;99.90
20827;DHT22;10574;52.508;13.236;2022-08-03T01:06:03;20.20;99.90
20827;DHT22;10574;52.508;13.236;2022-08-03T01:08:47;20.20;99.90
20827;DHT22;10574;52.508;13.236;2022-08-03T01:11:35;20.10;99.90
20827;DHT22;10574;52.508;13.236;2022-08-03T01:14:15;20.10;99.90
20827;DHT22;10574;52.508;13.236;2022-08-03T01:16:58;20.10;99.90
20827;DHT22;10574;52.508;13.236;2022-08-03T01:27:48;20.10;99.90
20827;DHT22;10574;52.508;13.236;2022-08-03T01:30:11;20.10;99.90
20827;DHT22;10574;52.508;13.236;2022-08-03T01:32:54;20.10;99.90
20827;DHT22;10574;52.508;13.236;2022-08-03T01:35:41;20.10;99.90
20827;DHT22;10574;52.508;13.236;2022-08-03T01:38:12;20.10;99.90
20827;DHT22;10574;52.508;13.236;2022-08-03T01:40:41;20.10;99.90
20827;DHT22;10574;52.508;13.236;2022-08-03T01:43:14;20.20;99.90
20827;DHT22;10574;52.508;13.236;2022-08-03T01:45:42;20.20;99.90
20827;DHT22;10574;52.508;13.236;2022-08-03T01:48:12;20.20;99.90
20827;DHT22;10574;52.508;13.236;2022-08-03T01:50:43;20.20;99.90
20827;DHT22;10574;52.508;13.236;2022-08-03T01:53:13;20.30;99.90
20827;DHT22;10574;52.508;13.236;2022-08-03T01:55:43;20.20;99.90
20827;DHT22;10574;52.508;13.236;2022-08-03T01:58:14;20.30;99.90
20827;DHT22;10574;52.508;13.236;2022-08-03T02:00:42;20.30;99.90
20827;DHT22;10574;52.508;13.236;2022-08-03T02:03:12;20.30;99.90
20827;DHT22;10574;52.508;13.236;2022-08-03T02:05:45;20.40;99.90
20827;DHT22;10574;52.508;13.236;2022-08-03T02:08:13;20.40;99.90
20827;DHT22;10574;52.508;13.236;2022-08-03T02:10:42;20.40;99.90
20827;DHT22;10574;52.508;13.236;2022-08-03T02:13:12;20.50;99.90
20827;DHT22;10574;52.508;13.236;2022-08-03T02:15:41;20.40;99.90
20827;DHT22;10574;52.508;13.236;2022-08-03T02:18:10;20.40;99.90
20827;DHT22;10574;52.508;13.236;2022-08-03T02:20:40;20.50;99.90
20827;DHT22;10574;52.508;13.236;2022-08-03T02:23:09;20.40;99.90
20827;DHT22;10574;52.508;13.236;2022-08-03T02:25:40;20.40;99.90
20827;DHT22;10574;52.508;13.236;2022-08-03T02:28:10;20.50;99.90
20827;DHT22;10574;52.508;13.236;2022-08-03T02:30:39;20.50;99.90
20827;DHT22;10574;52.508;13.236;2022-08-03T02:33:11;20.50;99.90
20827;DHT22;10574;52.508;13.236;2022-08-03T02:35:40;20.50;99.90
20827;DHT22;10574;52.508;13.236;2022-08-03T02:38:10;20.50;99.90
20827;DHT22;10574;52.508;13.236;2022-08-03T02:40:40;20.40;99.90
20827;DHT22;10574;52.508;13.236;2022-08-03T02:43:19;20.40;99.90
20827;DHT22;10574;52.508;13.236;2022-08-03T02:45:45;20.40;99.90
20827;DHT22;10574;52.508;13.236;2022-08-03T02:48:19;20.40;99.90
20827;DHT22;10574;52.508;13.236;2022-08-03T02:50:51;20.40;99.90
20827;DHT22;10574;52.508;13.236;2022-08-03T02:53:20;20.40;99.90
20827;DHT22;10574;52.508;13.236;2022-08-03T02:55:50;20.30;99.90
20827;DHT22;10574;52.508;13.236;2022-08-03T02:58:20;20.30;99.90
20827;DHT22;10574;52.508;13.236;2022-08-03T03:00:50;20.30;99.90
20827;DHT22;10574;52.508;13.236;2022-08-03T03:03:19;20.30;99.90
20827;DHT22;10574;52.508;13.236;2022-08-03T03:05:49;20.20;99.90
20827;DHT22;10574;52.508;13.236;2022-08-03T03:08:18;20.20;99.90
20827;DHT22;10574;52.508;13.236;2022-08-03T03:10:47;20.20;99.90
20827;DHT22;10574;52.508;13.236;2022-08-03T03:13:15;20.20;99.90
20827;DHT22;10574;52.508;13.236;2022-08-03T03:15:44;20.20;99.90
20827;DHT22;10574;52.508;13.236;2022-08-03T03:18:14;20.20;99.90
20827;DHT22;10574;52.508;13.236;2022-08-03T03:20:44;20.20;99.90
20827;DHT22;10574;52.508;13.236;2022-08-03T03:23:12;20.20;99.90
20827;DHT22;10574;52.508;13.236;2022-08-03T03:25:41;20.20;99.90
20827;DHT22;10574;52.508;13.236;2022-08-03T03:28:09;20.10;99.90
20827;DHT22;10574;52.508;13.236;2022-08-03T03:30:37;20.10;99.90
20827;DHT22;10574;52.508;13.236;2022-08-03T03:33:05;20.10;99.90
20827;DHT22;10574;52.508;13.236;2022-08-03T03:35:33;20.10;99.90
20827;DHT22;10574;52.508;13.236;2022-08-03T03:38:01;20.10;99.90
20827;DHT22;10574;52.508;13.236;2022-08-03T03:40:28;20.10;99.90
20827;DHT22;10574;52.508;13.236;2022-08-03T03:42:56;20.10;99.90
20827;DHT22;10574;52.508;13.236;2022-08-03T03:45:24;20.00;99.90
20827;DHT22;10574;52.508;13.236;2022-08-03T03:47:52;20.00;99.90
20827;DHT22;10574;52.508;13.236;2022-08-03T03:50:21;20.00;99.90
20827;DHT22;10574;52.508;13.236;2022-08-03T03:52:50;20.00;99.90
20827;DHT22;10574;52.508;13.236;2022-08-03T03:55:18;20.00;99.90
20827;DHT22;10574;52.508;13.236;2022-08-03T03:57:45;20.10;99.90
20827;DHT22;10574;52.508;13.236;2022-08-03T04:00:14;20.10;99.90
20827;DHT22;10574;52.508;13.236;2022-08-03T04:02:43;20.10;99.90
20827;DHT22;10574;52.508;13.236;2022-08-03T04:05:11;20.20;99.90
20827;DHT22;10574;52.508;13.236;2022-08-03T04:08:08;20.20;99.90
20827;DHT22;10574;52.508;13.236;2022-08-03T04:11:20;20.30;99.90
20827;DHT22;10574;52.508;13.236;2022-08-03T04:14:04;20.30;99.90
20827;DHT22;10574;52.508;13.236;2022-08-03T04:16:34;20.40;99.90
20827;DHT22;10574;52.508;13.236;2022-08-03T04:19:07;20.50;99.90
20827;DHT22;10574;52.508;13.236;2022-08-03T04:21:34;20.50;99.90
20827;DHT22;10574;52.508;13.236;2022-08-03T04:24:05;20.50;99.90
20827;DHT22;10574;52.508;13.236;2022-08-03T04:26:38;20.50;99.90
20827;DHT22;10574;52.508;13.236;2022-08-03T04:29:06;20.50;99.90
20827;DHT22;10574;52.508;13.236;2022-08-03T04:31:36;20.60;99.90
20827;DHT22;10574;52.508;13.236;2022-08-03T04:34:04;20.60;99.90
20827;DHT22;10574;52.508;13.236;2022-08-03T04:36:36;20.60;99.90
20827;DHT22;10574;52.508;13.236;2022-08-03T04:39:07;20.70;99.90
20827;DHT22;10574;52.508;13.236;2022-08-03T04:41:35;21.00;99.90
20827;DHT22;10574;52.508;13.236;2022-08-03T04:44:06;21.10;99.90
20827;DHT22;10574;52.508;13.236;2022-08-03T04:46:37;21.20;99.90
20827;DHT22;10574;52.508;13.236;2022-08-03T04:49:06;21.30;99.90
20827;DHT22;10574;52.508;13.236;2022-08-03T04:51:34;21.40;99.90
20827;DHT22;10574;52.508;13.236;2022-08-03T04:54:04;21.40;99.90
20827;DHT22;10574;52.508;13.236;2022-08-03T04:56:33;21.50;99.90
20827;DHT22;10574;52.508;13.236;2022-08-03T04:59:01;21.60;99.90
20827;DHT22;10574;52.508;13.236;2022-08-03T05:01:29;21.80;99.90
20827;DHT22;10574;52.508;13.236;2022-08-03T05:03:57;21.90;99.90
20827;DHT22;10574;52.508;13.236;2022-08-03T05:06:24;22.20;99.90
20827;DHT22;10574;52.508;13.236;2022-08-03T05:08:52;23.00;99.90
20827;DHT22;10574;52.508;13.236;2022-08-03T05:11:20;23.90;99.90
20827;DHT22;10574;52.508;13.236;2022-08-03T05:13:48;24.50;99.90
20827;DHT22;10574;52.508;13.236;2022-08-03T05:16:16;24.80;99.90
20827;DHT22;10574;52.508;13.236;2022-08-03T05:18:44;25.00;99.90
20827;DHT22;10574;52.508;13.236;2022-08-03T05:21:12;25.20;99.90
20827;DHT22;10574;52.508;13.236;2022-08-03T05:23:43;25.20;99.40
20827;DHT22;10574;52.508;13.236;2022-08-03T05:26:11;25.80;99.50
20827;DHT22;10574;52.508;13.236;2022-08-03T05:28:39;26.70;97.10
20827;DHT22;10574;52.508;13.236;2022-08-03T05:31:06;27.90;94.60
20827;DHT22;10574;52.508;13.236;2022-08-03T05:33:34;28.70;90.90
20827;DHT22;10574;52.508;13.236;2022-08-03T05:36:02;29.50;89.20
20827;DHT22;10574;52.508;13.236;2022-08-03T05:38:32;30.00;85.50
20827;DHT22;10574;52.508;13.236;2022-08-03T05:40:59;30.60;81.60
20827;DHT22;10574;52.508;13.236;2022-08-03T05:43:27;30.50;79.60
20827;DHT22;10574;52.508;13.236;2022-08-03T05:45:55;30.30;80.00
20827;DHT22;10574;52.508;13.236;2022-08-03T05:48:22;29.90;78.70
20827;DHT22;10574;52.508;13.236;2022-08-03T05:50:50;29.40;80.00
20827;DHT22;10574;52.508;13.236;2022-08-03T05:53:17;29.30;81.10
20827;DHT22;10574;52.508;13.236;2022-08-03T05:55:45;29.10;81.70
20827;DHT22;10574;52.508;13.236;2022-08-03T05:58:12;29.00;81.30
20827;DHT22;10574;52.508;13.236;2022-08-03T06:00:40;28.80;82.30
20827;DHT22;10574;52.508;13.236;2022-08-03T06:03:09;28.40;82.00
20827;DHT22;10574;52.508;13.236;2022-08-03T06:05:36;28.30;82.50
20827;DHT22;10574;52.508;13.236;2022-08-03T06:08:05;28.20;82.30
20827;DHT22;10574;52.508;13.236;2022-08-03T06:10:32;28.20;83.40
20827;DHT22;10574;52.508;13.236;2022-08-03T06:13:00;27.90;83.30
20827;DHT22;10574;52.508;13.236;2022-08-03T06:15:27;28.10;84.60
20827;DHT22;10574;52.508;13.236;2022-08-03T06:17:57;28.20;83.80
20827;DHT22;10574;52.508;13.236;2022-08-03T06:20:25;28.50;83.10
20827;DHT22;10574;52.508;13.236;2022-08-03T06:22:53;28.70;81.90
20827;DHT22;10574;52.508;13.236;2022-08-03T06:25:21;28.90;80.60
20827;DHT22;10574;52.508;13.236;2022-08-03T06:27:48;29.10;80.10
20827;DHT22;10574;52.508;13.236;2022-08-03T06:30:16;29.00;80.60
20827;DHT22;10574;52.508;13.236;2022-08-03T06:32:44;29.00;79.00
20827;DHT22;10574;52.508;13.236;2022-08-03T06:35:12;29.00;80.30
20827;DHT22;10574;52.508;13.236;2022-08-03T06:37:48;29.20;79.00
20827;DHT22;10574;52.508;13.236;2022-08-03T06:40:21;29.50;76.80
20827;DHT22;10574;52.508;13.236;2022-08-03T06:43:01;29.50;76.90
20827;DHT22;10574;52.508;13.236;2022-08-03T06:45:29;29.40;78.00
20827;DHT22;10574;52.508;13.236;2022-08-03T06:48:03;29.70;77.70
20827;DHT22;10574;52.508;13.236;2022-08-03T06:50:31;29.90;75.60
20827;DHT22;10574;52.508;13.236;2022-08-03T06:53:00;30.10;75.80
20827;DHT22;10574;52.508;13.236;2022-08-03T06:55:28;30.30;75.10
20827;DHT22;10574;52.508;13.236;2022-08-03T06:57:55;30.30;73.50
20827;DHT22;10574;52.508;13.236;2022-08-03T07:00:24;29.90;73.80
20827;DHT22;10574;52.508;13.236;2022-08-03T07:02:51;29.60;75.70
20827;DHT22;10574;52.508;13.236;2022-08-03T07:05:19;29.80;74.40
20827;DHT22;10574;52.508;13.236;2022-08-03T07:07:48;29.90;74.80
20827;DHT22;10574;52.508;13.236;2022-08-03T07:10:16;30.30;74.70
20827;DHT22;10574;52.508;13.236;2022-08-03T07:12:43;30.40;73.70
20827;DHT22;10574;52.508;13.236;2022-08-03T07:15:11;30.80;74.00
20827;DHT22;10574;52.508;13.236;2022-08-03T07:17:38;30.90;72.20
20827;DHT22;10574;52.508;13.236;2022-08-03T07:20:07;31.10;70.40
20827;DHT22;10574;52.508;13.236;2022-08-03T07:22:35;30.70;71.40
20827;DHT22;10574;52.508;13.236;2022-08-03T07:25:03;30.80;72.10
20827;DHT22;10574;52.508;13.236;2022-08-03T07:27:31;31.10;70.70
20827;DHT22;10574;52.508;13.236;2022-08-03T07:29:59;31.10;70.20
20827;DHT22;10574;52.508;13.236;2022-08-03T07:32:27;31.10;72.20
20827;DHT22;10574;52.508;13.236;2022-08-03T07:34:56;31.10;71.20
20827;DHT22;10574;52.508;13.236;2022-08-03T07:37:26;31.30;70.40
20827;DHT22;10574;52.508;13.236;2022-08-03T07:39:53;31.20;71.70
20827;DHT22;10574;52.508;13.236;2022-08-03T07:42:21;31.50;71.00
20827;DHT22;10574;52.508;13.236;2022-08-03T07:44:52;31.20;70.50
20827;DHT22;10574;52.508;13.236;2022-08-03T07:47:22;31.30;69.10
20827;DHT22;10574;52.508;13.236;2022-08-03T07:49:51;31.20;69.90
20827;DHT22;10574;52.508;13.236;2022-08-03T07:52:19;31.30;68.70
20827;DHT22;10574;52.508;13.236;2022-08-03T07:55:08;31.60;68.00
20827;DHT22;10574;52.508;13.236;2022-08-03T07:57:36;31.50;68.40
20827;DHT22;10574;52.508;13.236;2022-08-03T08:00:06;31.60;68.40
20827;DHT22;10574;52.508;13.236;2022-08-03T08:02:37;31.90;66.30
20827;DHT22;10574;52.508;13.236;2022-08-03T08:05:05;31.80;68.90
20827;DHT22;10574;52.508;13.236;2022-08-03T08:07:33;32.20;66.70
20827;DHT22;10574;52.508;13.236;2022-08-03T08:10:01;32.50;65.80
20827;DHT22;10574;52.508;13.236;2022-08-03T08:12:28;32.00;65.20
20827;DHT22;10574;52.508;13.236;2022-08-03T08:14:56;31.50;66.10
20827;DHT22;10574;52.508;13.236;2022-08-03T08:17:24;31.70;67.00
20827;DHT22;10574;52.508;13.236;2022-08-03T08:19:51;31.70;66.80
20827;DHT22;10574;52.508;13.236;2022-08-03T08:22:19;32.00;65.10
20827;DHT22;10574;52.508;13.236;2022-08-03T08:24:47;31.80;65.00
20827;DHT22;10574;52.508;13.236;2022-08-03T08:27:15;32.00;65.60
20827;DHT22;10574;52.508;13.236;2022-08-03T08:29:43;32.30;63.60
20827;DHT22;10574;52.508;13.236;2022-08-03T08:32:11;32.50;62.30
20827;DHT22;10574;52.508;13.236;2022-08-03T08:34:41;32.50;60.70
20827;DHT22;10574;52.508;13.236;2022-08-03T08:37:09;32.50;60.30
20827;DHT22;10574;52.508;13.236;2022-08-03T08:39:37;32.60;59.90
20827;DHT22;10574;52.508;13.236;2022-08-03T08:42:04;32.70;60.50
20827;DHT22;10574;52.508;13.236;2022-08-03T08:44:32;32.60;60.40
20827;DHT22;10574;52.508;13.236;2022-08-03T08:47:02;32.70;59.90
20827;DHT22;10574;52.508;13.236;2022-08-03T08:49:32;32.60;60.00
20827;DHT22;10574;52.508;13.236;2022-08-03T08:52:03;32.40;60.50
20827;DHT22;10574;52.508;13.236;2022-08-03T08:54:32;32.40;60.20
20827;DHT22;10574;52.508;13.236;2022-08-03T08:57:04;32.30;61.00
20827;DHT22;10574;52.508;13.236;2022-08-03T08:59:33;31.90;59.80
20827;DHT22;10574;52.508;13.236;2022-08-03T09:02:01;31.70;60.70
20827;DHT22;10574;52.508;13.236;2022-08-03T09:04:29;31.80;61.70
20827;DHT22;10574;52.508;13.236;2022-08-03T09:06:57;32.10;62.30
20827;DHT22;10574;52.508;13.236;2022-08-03T09:09:25;32.30;61.70
20827;DHT22;10574;52.508;13.236;2022-08-03T09:11:52;32.30;61.10
20827;DHT22;10574;52.508;13.236;2022-08-03T09:14:20;32.30;62.00
20827;DHT22;10574;52.508;13.236;2022-08-03T09:16:58;32.40;62.00
20827;DHT22;10574;52.508;13.236;2022-08-03T09:19:32;32.40;62.30
20827;DHT22;10574;52.508;13.236;2022-08-03T09:22:08;32.60;62.10
20827;DHT22;10574;52.508;13.236;2022-08-03T09:24:37;32.50;61.60
20827;DHT22;10574;52.508;13.236;2022-08-03T09:27:10;32.40;62.30
20827;DHT22;10574;52.508;13.236;2022-08-03T09:29:36;32.20;65.00
20827;DHT22;10574;52.508;13.236;2022-08-03T09:32:04;32.10;61.50
20827;DHT22;10574;52.508;13.236;2022-08-03T09:34:32;32.20;64.60
20827;DHT22;10574;52.508;13.236;2022-08-03T09:37:00;32.20;61.90
20827;DHT22;10574;52.508;13.236;2022-08-03T09:39:28;32.10;63.70
20827;DHT22;10574;52.508;13.236;2022-08-03T09:42:17;32.30;60.90
20827;DHT22;10574;52.508;13.236;2022-08-03T09:44:48;32.40;60.80
20827;DHT22;10574;52.508;13.236;2022-08-03T09:47:31;31.80;61.70
20827;DHT22;10574;52.508;13.236;2022-08-03T09:50:04;31.80;63.00
20827;DHT22;10574;52.508;13.236;2022-08-03T09:52:37;31.80;61.90
20827;DHT22;10574;52.508;13.236;2022-08-03T09:55:11;31.80;63.70
20827;DHT22;10574;52.508;13.236;2022-08-03T09:57:39;32.30;62.80
20827;DHT22;10574;52.508;13.236;2022-08-03T10:00:14;32.40;62.60
20827;DHT22;10574;52.508;13.236;2022-08-03T10:02:43;32.20;61.10
20827;DHT22;10574;52.508;13.236;2022-08-03T10:05:12;31.90;62.30
20827;DHT22;10574;52.508;13.236;2022-08-03T10:07:47;32.30;62.30
20827;DHT22;10574;52.508;13.236;2022-08-03T10:10:17;32.40;63.30
20827;DHT22;10574;52.508;13.236;2022-08-03T10:12:45;32.60;60.90
20827;DHT22;10574;52.508;13.236;2022-08-03T10:15:14;32.80;62.60
20827;DHT22;10574;52.508;13.236;2022-08-03T10:17:42;32.60;62.00
20827;DHT22;10574;52.508;13.236;2022-08-03T10:20:10;32.90;63.40
20827;DHT22;10574;52.508;13.236;2022-08-03T10:22:39;33.20;60.50
20827;DHT22;10574;52.508;13.236;2022-08-03T10:25:10;33.10;60.00
20827;DHT22;10574;52.508;13.236;2022-08-03T10:27:40;32.80;61.80
20827;DHT22;10574;52.508;13.236;2022-08-03T10:30:09;32.80;60.70
20827;DHT22;10574;52.508;13.236;2022-08-03T10:32:47;32.50;60.80
20827;DHT22;10574;52.508;13.236;2022-08-03T10:35:18;32.50;62.60
20827;DHT22;10574;52.508;13.236;2022-08-03T10:37:57;32.70;61.90
20827;DHT22;10574;52.508;13.236;2022-08-03T10:40:27;32.90;61.10
20827;DHT22;10574;52.508;13.236;2022-08-03T10:43:08;32.30;60.70
20827;DHT22;10574;52.508;13.236;2022-08-03T10:45:33;32.60;61.70
20827;DHT22;10574;52.508;13.236;2022-08-03T10:48:03;32.80;61.10
20827;DHT22;10574;52.508;13.236;2022-08-03T10:50:31;32.70;61.30
20827;DHT22;10574;52.508;13.236;2022-08-03T10:53:00;32.50;60.70
20827;DHT22;10574;52.508;13.236;2022-08-03T10:55:36;32.90;60.70
20827;DHT22;10574;52.508;13.236;2022-08-03T11:01:10;33.20;59.90
20827;DHT22;10574;52.508;13.236;2022-08-03T11:06:23;33.70;59.50
20827;DHT22;10574;52.508;13.236;2022-08-03T11:11:43;33.40;59.90
20827;DHT22;10574;52.508;13.236;2022-08-03T11:14:14;33.80;59.40
20827;DHT22;10574;52.508;13.236;2022-08-03T11:16:44;33.90;58.50
20827;DHT22;10574;52.508;13.236;2022-08-03T11:19:19;33.80;58.80
20827;DHT22;10574;52.508;13.236;2022-08-03T11:21:51;33.50;59.00
20827;DHT22;10574;52.508;13.236;2022-08-03T11:24:55;33.50;60.10
20827;DHT22;10574;52.508;13.236;2022-08-03T11:27:17;33.20;59.10
20827;DHT22;10574;52.508;13.236;2022-08-03T11:35:25;32.60;59.70
20827;DHT22;10574;52.508;13.236;2022-08-03T11:38:04;33.00;59.60
20827;DHT22;10574;52.508;13.236;2022-08-03T11:40:47;33.30;59.20
20827;DHT22;10574;52.508;13.236;2022-08-03T11:46:05;34.00;59.30
20827;DHT22;10574;52.508;13.236;2022-08-03T11:48:40;34.20;58.00
20827;DHT22;10574;52.508;13.236;2022-08-03T11:51:20;34.00;58.20
20827;DHT22;10574;52.508;13.236;2022-08-03T11:54:04;34.00;58.50
20827;DHT22;10574;52.508;13.236;2022-08-03T11:56:42;33.80;58.50
20827;DHT22;10574;52.508;13.236;2022-08-03T11:58:58;33.40;58.10
20827;DHT22;10574;52.508;13.236;2022-08-03T12:01:26;33.60;59.10
20827;DHT22;10574;52.508;13.236;2022-08-03T12:03:54;33.60;60.30
20827;DHT22;10574;52.508;13.236;2022-08-03T12:06:23;33.70;59.60
20827;DHT22;10574;52.508;13.236;2022-08-03T12:08:53;33.80;61.00
20827;DHT22;10574;52.508;13.236;2022-08-03T12:11:21;34.00;59.10
20827;DHT22;10574;52.508;13.236;2022-08-03T12:13:49;34.30;59.00
20827;DHT22;10574;52.508;13.236;2022-08-03T12:16:25;34.50;59.20
20827;DHT22;10574;52.508;13.236;2022-08-03T12:19:00;34.10;58.00
20827;DHT22;10574;52.508;13.236;2022-08-03T12:21:29;34.20;58.90
20827;DHT22;10574;52.508;13.236;2022-08-03T12:24:02;34.30;58.10
20827;DHT22;10574;52.508;13.236;2022-08-03T12:26:41;34.30;58.30
20827;DHT22;10574;52.508;13.236;2022-08-03T12:28:59;34.10;58.80
20827;DHT22;10574;52.508;13.236;2022-08-03T12:31:27;33.90;59.10
20827;DHT22;10574;52.508;13.236;2022-08-03T12:34:00;34.10;58.80
20827;DHT22;10574;52.508;13.236;2022-08-03T12:36:34;33.80;59.40
20827;DHT22;10574;52.508;13.236;2022-08-03T12:39:05;33.90;59.00
20827;DHT22;10574;52.508;13.236;2022-08-03T12:41:40;33.70;59.30
20827;DHT22;10574;52.508;13.236;2022-08-03T12:44:11;33.80;60.10
20827;DHT22;10574;52.508;13.236;2022-08-03T12:46:40;33.80;60.50
20827;DHT22;10574;52.508;13.236;2022-08-03T12:49:10;34.10;59.60
20827;DHT22;10574;52.508;13.236;2022-08-03T12:54:18;34.40;59.90
20827;DHT22;10574;52.508;13.236;2022-08-03T12:57:01;34.10;59.40
20827;DHT22;10574;52.508;13.236;2022-08-03T12:59:34;33.80;58.90
20827;DHT22;10574;52.508;13.236;2022-08-03T13:02:14;33.80;59.50
20827;DHT22;10574;52.508;13.236;2022-08-03T13:04:43;33.60;58.90
20827;DHT22;10574;52.508;13.236;2022-08-03T13:07:13;33.80;59.50
20827;DHT22;10574;52.508;13.236;2022-08-03T13:09:49;33.80;59.30
20827;DHT22;10574;52.508;13.236;2022-08-03T13:12:20;34.00;59.30
20827;DHT22;10574;52.508;13.236;2022-08-03T13:14:58;34.30;58.70
20827;DHT22;10574;52.508;13.236;2022-08-03T13:17:26;34.50;58.80
20827;DHT22;10574;52.508;13.236;2022-08-03T13:19:55;34.60;58.50
20827;DHT22;10574;52.508;13.236;2022-08-03T13:22:25;34.60;58.80
20827;DHT22;10574;52.508;13.236;2022-08-03T13:24:57;34.40;58.00
20827;DHT22;10574;52.508;13.236;2022-08-03T13:27:28;34.30;59.70
20827;DHT22;10574;52.508;13.236;2022-08-03T13:29:56;34.40;60.40
20827;DHT22;10574;52.508;13.236;2022-08-03T13:32:25;34.60;58.80
20827;DHT22;10574;52.508;13.236;2022-08-03T13:34:53;34.80;59.10
20827;DHT22;10574;52.508;13.236;2022-08-03T13:37:21;34.80;58.10
20827;DHT22;10574;52.508;13.236;2022-08-03T13:39:48;34.80;58.40
20827;DHT22;10574;52.508;13.236;2022-08-03T13:42:16;34.60;58.30
20827;DHT22;10574;52.508;13.236;2022-08-03T13:44:44;34.80;60.10
20827;DHT22;10574;52.508;13.236;2022-08-03T13:47:12;35.20;59.40
20827;DHT22;10574;52.508;13.236;2022-08-03T13:49:40;35.00;57.80
20827;DHT22;10574;52.508;13.236;2022-08-03T13:52:08;35.00;57.20
20827;DHT22;10574;52.508;13.236;2022-08-03T13:54:36;34.50;57.80
20827;DHT22;10574;52.508;13.236;2022-08-03T13:57:04;34.40;58.60
20827;DHT22;10574;52.508;13.236;2022-08-03T13:59:31;34.50;59.00
20827;DHT22;10574;52.508;13.236;2022-08-03T14:02:00;34.50;58.50
20827;DHT22;10574;52.508;13.236;2022-08-03T14:04:28;34.60;58.60
20827;DHT22;10574;52.508;13.236;2022-08-03T14:06:56;34.70;59.30
20827;DHT22;10574;52.508;13.236;2022-08-03T14:09:24;34.80;58.80
20827;DHT22;10574;52.508;13.236;2022-08-03T14:11:52;34.90;58.00
20827;DHT22;10574;52.508;13.236;2022-08-03T14:14:20;35.00;58.60
20827;DHT22;10574;52.508;13.236;2022-08-03T14:16:48;35.30;57.70
20827;DHT22;10574;52.508;13.236;2022-08-03T14:19:16;35.50;56.70
20827;DHT22;10574;52.508;13.236;2022-08-03T14:21:44;35.60;57.80
20827;DHT22;10574;52.508;13.236;2022-08-03T14:24:12;35.60;57.40
20827;DHT22;10574;52.508;13.236;2022-08-03T14:26:40;35.60;57.30
20827;DHT22;10574;52.508;13.236;2022-08-03T14:29:08;35.50;56.80
20827;DHT22;10574;52.508;13.236;2022-08-03T14:31:36;35.50;57.30
20827;DHT22;10574;52.508;13.236;2022-08-03T14:34:04;35.60;57.40
20827;DHT22;10574;52.508;13.236;2022-08-03T14:36:32;35.70;56.60
20827;DHT22;10574;52.508;13.236;2022-08-03T14:39:00;35.60;57.30
20827;DHT22;10574;52.508;13.236;2022-08-03T14:41:28;35.40;56.40
20827;DHT22;10574;52.508;13.236;2022-08-03T14:43:56;35.60;58.30
20827;DHT22;10574;52.508;13.236;2022-08-03T14:46:24;35.50;57.40
20827;DHT22;10574;52.508;13.236;2022-08-03T14:48:52;35.50;57.10
20827;DHT22;10574;52.508;13.236;2022-08-03T14:51:20;35.50;56.80
20827;DHT22;10574;52.508;13.236;2022-08-03T14:53:48;35.60;57.30
20827;DHT22;10574;52.508;13.236;2022-08-03T14:56:16;35.60;56.40
20827;DHT22;10574;52.508;13.236;2022-08-03T14:58:43;35.40;57.10
20827;DHT22;10574;52.508;13.236;2022-08-03T15:01:11;35.00;57.30
20827;DHT22;10574;52.508;13.236;2022-08-03T15:03:39;34.40;58.00
20827;DHT22;10574;52.508;13.236;2022-08-03T15:06:07;34.20;59.50
20827;DHT22;10574;52.508;13.236;2022-08-03T15:08:35;34.50;58.30
20827;DHT22;10574;52.508;13.236;2022-08-03T15:11:03;34.80;58.30
20827;DHT22;10574;52.508;13.236;2022-08-03T15:13:31;35.00;57.50
20827;DHT22;10574;52.508;13.236;2022-08-03T15:15:59;35.20;57.10
20827;DHT22;10574;52.508;13.236;2022-08-03T15:18:27;35.30;57.60
20827;DHT22;10574;52.508;13.236;2022-08-03T15:20:55;35.10;57.60
20827;DHT22;10574;52.508;13.236;2022-08-03T15:23:23;35.00;57.90
20827;DHT22;10574;52.508;13.236;2022-08-03T15:25:51;34.80;57.20
20827;DHT22;10574;52.508;13.236;2022-08-03T15:28:19;34.50;57.70
20827;DHT22;10574;52.508;13.236;2022-08-03T15:30:47;34.70;58.40
20827;DHT22;10574;52.508;13.236;2022-08-03T15:33:17;34.80;58.20
20827;DHT22;10574;52.508;13.236;2022-08-03T15:35:44;34.90;58.00
20827;DHT22;10574;52.508;13.236;2022-08-03T15:38:13;34.90;57.20
20827;DHT22;10574;52.508;13.236;2022-08-03T15:40:41;34.60;57.60
20827;DHT22;10574;52.508;13.236;2022-08-03T15:43:08;34.60;57.90
20827;DHT22;10574;52.508;13.236;2022-08-03T15:45:37;34.60;58.30
20827;DHT22;10574;52.508;13.236;2022-08-03T15:48:06;34.60;58.00
20827;DHT22;10574;52.508;13.236;2022-08-03T15:50:34;34.70;57.50
20827;DHT22;10574;52.508;13.236;2022-08-03T15:53:02;34.50;58.00
20827;DHT22;10574;52.508;13.236;2022-08-03T15:55:31;34.50;58.20
20827;DHT22;10574;52.508;13.236;2022-08-03T15:57:59;34.60;58.40
20827;DHT22;10574;52.508;13.236;2022-08-03T16:00:27;34.70;58.40